sensor_id;sensor_type;location;lat;lon;timestamp;temperature;humidity
27224;DHT22;14965;50.660;13.226;2023-06-26T00:01:40;16.70;99.90
27224;DHT22;14965;50.660;13.226;2023-06-26T00:04:06;16.70;99.90
27224;DHT22;14965;50.660;13.226;2023-06-26T00:06:31;16.70;99.90
27224;DHT22;14965;50.660;13.226;2023-06-26T00:08:59;16.70;99.90
27224;DHT22;14965;50.660;13.226;2023-06-26T00:11:24;16.80;99.90
27224;DHT22;14965;50.660;13.226;2023-06-26T00:13:50;16.80;99.90
27224;DHT22;14965;50.660;13.226;2023-06-26T00:16:16;16.80;99.90
27224;DHT22;14965;50.660;13.226;2023-06-26T00:18:42;16.80;99.90
27224;DHT22;14965;50.660;13.226;2023-06-26T00:21:08;16.90;99.90
27224;DHT22;14965;50.660;13.226;2023-06-26T00:23:34;16.90;99.90
27224;DHT22;14965;50.660;13.226;2023-06-26T00:26:01;16.90;99.90
27224;DHT22;14965;50.660;13.226;2023-06-26T00:28:27;16.90;99.90
27224;DHT22;14965;50.660;13.226;2023-06-26T00:30:53;16.90;99.90
27224;DHT22;14965;50.660;13.226;2023-06-26T00:33:19;16.90;99.90
27224;DHT22;14965;50.660;13.226;2023-06-26T00:35:45;16.90;99.90
27224;DHT22;14965;50.660;13.226;2023-06-26T00:38:10;16.90;99.90
27224;DHT22;14965;50.660;13.226;2023-06-26T00:40:36;16.90;99.90
27224;DHT22;14965;50.660;13.226;2023-06-26T00:43:03;16.90;99.90
27224;DHT22;14965;50.660;13.226;2023-06-26T00:45:29;16.90;99.90
27224;DHT22;14965;50.660;13.226;2023-06-26T00:47:55;17.00;99.90
27224;DHT22;14965;50.660;13.226;2023-06-26T00:50:21;17.00;99.90
27224;DHT22;14965;50.660;13.226;2023-06-26T00:52:48;17.00;99.90
27224;DHT22;14965;50.660;13.226;2023-06-26T00:55:14;17.10;99.90
27224;DHT22;14965;50.660;13.226;2023-06-26T00:57:40;17.10;99.90
27224;DHT22;14965;50.660;13.226;2023-06-26T01:00:08;17.10;99.90
27224;DHT22;14965;50.660;13.226;2023-06-26T01:02:35;17.10;99.90
27224;DHT22;14965;50.660;13.226;2023-06-26T01:08:29;17.00;99.90
27224;DHT22;14965;50.660;13.226;2023-06-26T01:10:55;16.90;99.90
27224;DHT22;14965;50.660;13.226;2023-06-26T01:13:21;16.90;99.90
27224;DHT22;14965;50.660;13.226;2023-06-26T01:15:49;16.80;99.90
27224;DHT22;14965;50.660;13.226;2023-06-26T01:18:17;16.80;99.90
27224;DHT22;14965;50.660;13.226;2023-06-26T01:20:44;16.80;99.90
27224;DHT22;14965;50.660;13.226;2023-06-26T01:23:17;16.80;99.90
27224;DHT22;14965;50.660;13.226;2023-06-26T01:25:58;16.70;99.90
27224;DHT22;14965;50.660;13.226;2023-06-26T01:28:50;16.70;99.90
27224;DHT22;14965;50.660;13.226;2023-06-26T01:31:19;16.70;99.90
27224;DHT22;14965;50.660;13.226;2023-06-26T01:33:45;16.70;99.90
27224;DHT22;14965;50.660;13.226;2023-06-26T01:36:13;16.70;99.90
27224;DHT22;14965;50.660;13.226;2023-06-26T01:38:39;16.70;99.90
27224;DHT22;14965;50.660;13.226;2023-06-26T01:41:05;16.80;99.90
27224;DHT22;14965;50.660;13.226;2023-06-26T01:43:37;16.80;99.90
27224;DHT22;14965;50.660;13.226;2023-06-26T01:46:18;16.90;99.90
27224;DHT22;14965;50.660;13.226;2023-06-26T01:48:54;16.90;99.90
27224;DHT22;14965;50.660;13.226;2023-06-26T01:51:30;16.90;99.90
27224;DHT22;14965;50.660;13.226;2023-06-26T01:53:59;17.00;99.90
27224;DHT22;14965;50.660;13.226;2023-06-26T01:56:28;17.00;99.90
27224;DHT22;14965;50.660;13.226;2023-06-26T01:58:55;17.00;99.90
27224;DHT22;14965;50.660;13.226;2023-06-26T02:01:23;17.10;99.90
27224;DHT22;14965;50.660;13.226;2023-06-26T02:03:49;17.10;99.90
27224;DHT22;14965;50.660;13.226;2023-06-26T02:06:15;17.20;99.90
27224;DHT22;14965;50.660;13.226;2023-06-26T02:08:42;17.20;99.90
27224;DHT22;14965;50.660;13.226;2023-06-26T02:11:07;17.30;99.90
27224;DHT22;14965;50.660;13.226;2023-06-26T02:13:33;17.30;99.90
27224;DHT22;14965;50.660;13.226;2023-06-26T02:15:59;17.30;99.90
27224;DHT22;14965;50.660;13.226;2023-06-26T02:18:26;17.30;99.90
27224;DHT22;14965;50.660;13.226;2023-06-26T02:20:52;17.30;99.90
27224;DHT22;14965;50.660;13.226;2023-06-26T02:23:18;17.30;99.90
27224;DHT22;14965;50.660;13.226;2023-06-26T02:25:44;17.30;99.90
27224;DHT22;14965;50.660;13.226;2023-06-26T02:28:09;17.30;99.90
27224;DHT22;14965;50.660;13.226;2023-06-26T02:30:35;17.30;99.90
27224;DHT22;14965;50.660;13.226;2023-06-26T02:33:01;17.30;99.90
27224;DHT22;14965;50.660;13.226;2023-06-26T02:35:28;17.30;99.90
27224;DHT22;14965;50.660;13.226;2023-06-26T02:37:54;17.30;99.90
27224;DHT22;14965;50.660;13.226;2023-06-26T02:40:20;17.30;99.90
27224;DHT22;14965;50.660;13.226;2023-06-26T02:42:46;17.30;99.90
27224;DHT22;14965;50.660;13.226;2023-06-26T02:45:12;17.20;99.90
27224;DHT22;14965;50.660;13.226;2023-06-26T02:47:38;17.30;99.90
27224;DHT22;14965;50.660;13.226;2023-06-26T02:50:04;17.30;99.90
27224;DHT22;14965;50.660;13.226;2023-06-26T02:52:32;17.30;99.90
27224;DHT22;14965;50.660;13.226;2023-06-26T02:54:58;17.30;99.90
27224;DHT22;14965;50.660;13.226;2023-06-26T02:57:23;17.30;99.90
27224;DHT22;14965;50.660;13.226;2023-06-26T02:59:49;17.40;99.90
27224;DHT22;14965;50.660;13.226;2023-06-26T03:02:15;17.40;99.90
27224;DHT22;14965;50.660;13.226;2023-06-26T03:04:41;17.40;99.90
27224;DHT22;14965;50.660;13.226;2023-06-26T03:07:07;17.40;99.90
27224;DHT22;14965;50.660;13.226;2023-06-26T03:09:34;17.40;99.90
27224;DHT22;14965;50.660;13.226;2023-06-26T03:12:00;17.40;99.90
27224;DHT22;14965;50.660;13.226;2023-06-26T03:14:26;17.50;99.90
27224;DHT22;14965;50.660;13.226;2023-06-26T03:16:52;17.50;99.90
27224;DHT22;14965;50.660;13.226;2023-06-26T03:19:18;17.60;99.90
27224;DHT22;14965;50.660;13.226;2023-06-26T03:21:44;17.60;99.90
27224;DHT22;14965;50.660;13.226;2023-06-26T03:24:10;17.60;99.90
27224;DHT22;14965;50.660;13.226;2023-06-26T03:26:37;17.60;99.90
27224;DHT22;14965;50.660;13.226;2023-06-26T03:29:03;17.60;99.90
27224;DHT22;14965;50.660;13.226;2023-06-26T03:31:29;17.70;99.90
27224;DHT22;14965;50.660;13.226;2023-06-26T03:33:55;17.70;99.90
27224;DHT22;14965;50.660;13.226;2023-06-26T03:36:20;17.70;99.90
27224;DHT22;14965;50.660;13.226;2023-06-26T03:38:46;17.70;99.90
27224;DHT22;14965;50.660;13.226;2023-06-26T03:41:12;17.80;99.90
27224;DHT22;14965;50.660;13.226;2023-06-26T03:43:39;17.80;99.90
27224;DHT22;14965;50.660;13.226;2023-06-26T03:46:05;17.90;99.90
27224;DHT22;14965;50.660;13.226;2023-06-26T03:48:31;17.90;99.90
27224;DHT22;14965;50.660;13.226;2023-06-26T03:50:57;18.00;99.90
27224;DHT22;14965;50.660;13.226;2023-06-26T03:53:23;18.00;99.90
27224;DHT22;14965;50.660;13.226;2023-06-26T03:55:49;18.10;99.90
27224;DHT22;14965;50.660;13.226;2023-06-26T03:58:15;18.10;99.90
27224;DHT22;14965;50.660;13.226;2023-06-26T04:00:42;18.20;99.90
27224;DHT22;14965;50.660;13.226;2023-06-26T04:03:08;18.20;99.90
27224;DHT22;14965;50.660;13.226;2023-06-26T04:05:34;18.20;99.90
27224;DHT22;14965;50.660;13.226;2023-06-26T04:08:00;18.20;99.90
27224;DHT22;14965;50.660;13.226;2023-06-26T04:10:26;18.30;99.90
27224;DHT22;14965;50.660;13.226;2023-06-26T04:12:51;18.30;99.90
27224;DHT22;14965;50.660;13.226;2023-06-26T04:15:17;18.40;99.90
27224;DHT22;14965;50.660;13.226;2023-06-26T04:17:44;18.50;99.90
27224;DHT22;14965;50.660;13.226;2023-06-26T04:20:10;18.60;99.90
27224;DHT22;14965;50.660;13.226;2023-06-26T04:22:36;18.70;99.90
27224;DHT22;14965;50.660;13.226;2023-06-26T04:25:03;18.80;99.90
27224;DHT22;14965;50.660;13.226;2023-06-26T04:27:30;19.00;99.90
27224;DHT22;14965;50.660;13.226;2023-06-26T04:29:57;19.40;99.90
27224;DHT22;14965;50.660;13.226;2023-06-26T04:32:22;20.40;99.90
27224;DHT22;14965;50.660;13.226;2023-06-26T04:34:50;21.50;99.90
27224;DHT22;14965;50.660;13.226;2023-06-26T04:37:16;22.50;99.90
27224;DHT22;14965;50.660;13.226;2023-06-26T04:39:41;22.80;99.90
27224;DHT22;14965;50.660;13.226;2023-06-26T04:42:08;22.70;99.90
27224;DHT22;14965;50.660;13.226;2023-06-26T04:44:33;22.20;99.90
27224;DHT22;14965;50.660;13.226;2023-06-26T04:46:59;21.80;99.90
27224;DHT22;14965;50.660;13.226;2023-06-26T04:49:25;21.80;99.90
27224;DHT22;14965;50.660;13.226;2023-06-26T04:51:53;21.60;99.90
27224;DHT22;14965;50.660;13.226;2023-06-26T04:54:19;21.40;99.90
27224;DHT22;14965;50.660;13.226;2023-06-26T04:56:44;21.30;99.90
27224;DHT22;14965;50.660;13.226;2023-06-26T04:59:10;21.20;99.90
27224;DHT22;14965;50.660;13.226;2023-06-26T05:01:36;21.10;99.90
27224;DHT22;14965;50.660;13.226;2023-06-26T05:04:03;21.30;99.90
27224;DHT22;14965;50.660;13.226;2023-06-26T05:06:29;21.30;99.90
27224;DHT22;14965;50.660;13.226;2023-06-26T05:08:56;21.30;99.90
27224;DHT22;14965;50.660;13.226;2023-06-26T05:11:22;21.30;99.90
27224;DHT22;14965;50.660;13.226;2023-06-26T05:13:48;21.60;99.90
27224;DHT22;14965;50.660;13.226;2023-06-26T05:16:13;22.00;99.90
27224;DHT22;14965;50.660;13.226;2023-06-26T05:18:39;22.20;99.90
27224;DHT22;14965;50.660;13.226;2023-06-26T05:21:06;22.10;99.90
27224;DHT22;14965;50.660;13.226;2023-06-26T05:23:33;21.90;99.90
27224;DHT22;14965;50.660;13.226;2023-06-26T05:26:02;21.90;99.90
27224;DHT22;14965;50.660;13.226;2023-06-26T05:28:29;22.40;99.90
27224;DHT22;14965;50.660;13.226;2023-06-26T05:30:56;22.90;99.90
27224;DHT22;14965;50.660;13.226;2023-06-26T05:33:24;23.80;99.90
27224;DHT22;14965;50.660;13.226;2023-06-26T05:35:52;24.80;99.90
27224;DHT22;14965;50.660;13.226;2023-06-26T05:38:19;24.80;99.90
27224;DHT22;14965;50.660;13.226;2023-06-26T05:40:46;24.50;99.90
27224;DHT22;14965;50.660;13.226;2023-06-26T05:43:14;24.70;99.90
27224;DHT22;14965;50.660;13.226;2023-06-26T05:45:41;24.70;99.90
27224;DHT22;14965;50.660;13.226;2023-06-26T05:48:07;25.20;99.90
27224;DHT22;14965;50.660;13.226;2023-06-26T05:50:33;25.90;99.90
27224;DHT22;14965;50.660;13.226;2023-06-26T05:53:00;26.00;99.90
27224;DHT22;14965;50.660;13.226;2023-06-26T05:55:26;26.80;99.90
27224;DHT22;14965;50.660;13.226;2023-06-26T05:57:53;27.80;99.90
27224;DHT22;14965;50.660;13.226;2023-06-26T06:00:26;28.80;99.30
27224;DHT22;14965;50.660;13.226;2023-06-26T06:02:52;29.70;96.90
27224;DHT22;14965;50.660;13.226;2023-06-26T06:05:18;30.30;94.50
27224;DHT22;14965;50.660;13.226;2023-06-26T06:07:44;30.60;92.50
27224;DHT22;14965;50.660;13.226;2023-06-26T06:10:10;30.80;91.70
27224;DHT22;14965;50.660;13.226;2023-06-26T06:12:36;30.80;90.20
27224;DHT22;14965;50.660;13.226;2023-06-26T06:15:02;30.60;90.00
27224;DHT22;14965;50.660;13.226;2023-06-26T06:17:29;30.60;90.20
27224;DHT22;14965;50.660;13.226;2023-06-26T06:19:55;30.40;88.20
27224;DHT22;14965;50.660;13.226;2023-06-26T06:22:21;30.10;86.90
27224;DHT22;14965;50.660;13.226;2023-06-26T06:24:48;30.10;88.00
27224;DHT22;14965;50.660;13.226;2023-06-26T06:27:15;30.10;87.90
27224;DHT22;14965;50.660;13.226;2023-06-26T06:29:42;30.00;85.80
27224;DHT22;14965;50.660;13.226;2023-06-26T06:32:08;30.10;88.00
27224;DHT22;14965;50.660;13.226;2023-06-26T06:34:35;30.30;87.70
27224;DHT22;14965;50.660;13.226;2023-06-26T06:37:02;30.20;86.20
27224;DHT22;14965;50.660;13.226;2023-06-26T06:39:28;30.30;86.10
27224;DHT22;14965;50.660;13.226;2023-06-26T06:41:55;30.30;82.80
27224;DHT22;14965;50.660;13.226;2023-06-26T06:44:21;30.40;83.50
27224;DHT22;14965;50.660;13.226;2023-06-26T06:46:47;30.30;84.70
27224;DHT22;14965;50.660;13.226;2023-06-26T06:49:13;30.20;83.80
27224;DHT22;14965;50.660;13.226;2023-06-26T06:51:40;30.10;82.40
27224;DHT22;14965;50.660;13.226;2023-06-26T06:54:06;30.20;83.50
27224;DHT22;14965;50.660;13.226;2023-06-26T06:56:32;30.30;84.30
27224;DHT22;14965;50.660;13.226;2023-06-26T06:58:58;30.30;83.30
27224;DHT22;14965;50.660;13.226;2023-06-26T07:01:23;30.10;83.60
27224;DHT22;14965;50.660;13.226;2023-06-26T07:03:49;29.70;81.00
27224;DHT22;14965;50.660;13.226;2023-06-26T07:06:15;29.30;83.80
27224;DHT22;14965;50.660;13.226;2023-06-26T07:08:42;29.00;85.90
27224;DHT22;14965;50.660;13.226;2023-06-26T07:11:09;28.60;86.40
27224;DHT22;14965;50.660;13.226;2023-06-26T07:13:34;28.20;87.10
27224;DHT22;14965;50.660;13.226;2023-06-26T07:16:00;27.90;87.90
27224;DHT22;14965;50.660;13.226;2023-06-26T07:18:26;27.40;86.50
27224;DHT22;14965;50.660;13.226;2023-06-26T07:20:52;26.90;90.00
27224;DHT22;14965;50.660;13.226;2023-06-26T07:23:18;26.90;90.30
27224;DHT22;14965;50.660;13.226;2023-06-26T07:25:45;27.40;89.60
27224;DHT22;14965;50.660;13.226;2023-06-26T07:28:11;27.70;90.20
27224;DHT22;14965;50.660;13.226;2023-06-26T07:30:37;27.50;90.20
27224;DHT22;14965;50.660;13.226;2023-06-26T07:33:04;27.00;89.80
27224;DHT22;14965;50.660;13.226;2023-06-26T07:35:29;26.70;91.40
27224;DHT22;14965;50.660;13.226;2023-06-26T07:37:55;26.60;92.60
27224;DHT22;14965;50.660;13.226;2023-06-26T07:40:22;26.40;92.20
27224;DHT22;14965;50.660;13.226;2023-06-26T07:42:49;26.40;92.30
27224;DHT22;14965;50.660;13.226;2023-06-26T07:45:15;26.50;93.10
27224;DHT22;14965;50.660;13.226;2023-06-26T07:47:41;26.50;93.40
27224;DHT22;14965;50.660;13.226;2023-06-26T07:50:07;26.40;93.50
27224;DHT22;14965;50.660;13.226;2023-06-26T07:52:34;26.40;93.40
27224;DHT22;14965;50.660;13.226;2023-06-26T07:54:59;26.40;94.10
27224;DHT22;14965;50.660;13.226;2023-06-26T07:57:34;26.70;93.30
27224;DHT22;14965;50.660;13.226;2023-06-26T08:00:01;26.80;92.20
27224;DHT22;14965;50.660;13.226;2023-06-26T08:02:28;27.00;92.30
27224;DHT22;14965;50.660;13.226;2023-06-26T08:04:53;27.30;93.20
27224;DHT22;14965;50.660;13.226;2023-06-26T08:07:19;27.70;91.70
27224;DHT22;14965;50.660;13.226;2023-06-26T08:09:45;27.70;90.70
27224;DHT22;14965;50.660;13.226;2023-06-26T08:12:11;27.60;91.90
27224;DHT22;14965;50.660;13.226;2023-06-26T08:14:37;27.50;91.40
27224;DHT22;14965;50.660;13.226;2023-06-26T08:17:04;27.10;91.50
27224;DHT22;14965;50.660;13.226;2023-06-26T08:19:30;27.10;93.40
27224;DHT22;14965;50.660;13.226;2023-06-26T08:21:56;27.30;94.00
27224;DHT22;14965;50.660;13.226;2023-06-26T08:24:22;27.60;93.20
27224;DHT22;14965;50.660;13.226;2023-06-26T08:26:48;28.00;92.70
27224;DHT22;14965;50.660;13.226;2023-06-26T08:29:14;28.10;91.90
27224;DHT22;14965;50.660;13.226;2023-06-26T08:31:41;27.90;90.90
27224;DHT22;14965;50.660;13.226;2023-06-26T08:34:09;27.40;90.80
27224;DHT22;14965;50.660;13.226;2023-06-26T08:36:35;27.10;91.80
27224;DHT22;14965;50.660;13.226;2023-06-26T08:39:01;27.00;92.20
27224;DHT22;14965;50.660;13.226;2023-06-26T08:41:27;27.20;91.90
27224;DHT22;14965;50.660;13.226;2023-06-26T08:43:53;27.30;91.30
27224;DHT22;14965;50.660;13.226;2023-06-26T08:46:19;27.60;91.80
27224;DHT22;14965;50.660;13.226;2023-06-26T08:48:51;27.90;91.50
27224;DHT22;14965;50.660;13.226;2023-06-26T08:51:24;28.30;91.30
27224;DHT22;14965;50.660;13.226;2023-06-26T08:53:56;28.60;89.80
27224;DHT22;14965;50.660;13.226;2023-06-26T08:56:25;28.70;90.60
27224;DHT22;14965;50.660;13.226;2023-06-26T08:58:57;28.50;91.20
27224;DHT22;14965;50.660;13.226;2023-06-26T09:01:24;27.70;90.20
27224;DHT22;14965;50.660;13.226;2023-06-26T09:03:50;26.90;90.40
27224;DHT22;14965;50.660;13.226;2023-06-26T09:06:17;26.50;91.50
27224;DHT22;14965;50.660;13.226;2023-06-26T09:08:44;26.10;91.80
27224;DHT22;14965;50.660;13.226;2023-06-26T09:11:10;26.00;91.70
27224;DHT22;14965;50.660;13.226;2023-06-26T09:13:36;26.30;92.00
27224;DHT22;14965;50.660;13.226;2023-06-26T09:16:05;26.70;92.00
27224;DHT22;14965;50.660;13.226;2023-06-26T09:18:32;26.80;90.50
27224;DHT22;14965;50.660;13.226;2023-06-26T09:20:58;27.00;91.70
27224;DHT22;14965;50.660;13.226;2023-06-26T09:23:24;27.30;90.30
27224;DHT22;14965;50.660;13.226;2023-06-26T09:25:52;27.70;90.90
27224;DHT22;14965;50.660;13.226;2023-06-26T09:28:19;27.70;88.00
27224;DHT22;14965;50.660;13.226;2023-06-26T09:30:45;27.60;90.20
27224;DHT22;14965;50.660;13.226;2023-06-26T09:33:14;27.70;90.20
27224;DHT22;14965;50.660;13.226;2023-06-26T09:35:41;27.50;90.70
27224;DHT22;14965;50.660;13.226;2023-06-26T09:38:07;27.30;91.20
27224;DHT22;14965;50.660;13.226;2023-06-26T09:40:33;27.40;92.20
27224;DHT22;14965;50.660;13.226;2023-06-26T09:43:03;27.60;92.20
27224;DHT22;14965;50.660;13.226;2023-06-26T09:45:31;27.60;90.60
27224;DHT22;14965;50.660;13.226;2023-06-26T09:48:00;27.30;91.40
27224;DHT22;14965;50.660;13.226;2023-06-26T09:50:26;27.10;90.20
27224;DHT22;14965;50.660;13.226;2023-06-26T09:52:52;27.20;91.80
27224;DHT22;14965;50.660;13.226;2023-06-26T09:55:19;27.50;90.20
27224;DHT22;14965;50.660;13.226;2023-06-26T09:57:46;27.80;90.00
27224;DHT22;14965;50.660;13.226;2023-06-26T10:00:15;28.10;88.60
27224;DHT22;14965;50.660;13.226;2023-06-26T10:02:41;28.40;89.00
27224;DHT22;14965;50.660;13.226;2023-06-26T10:05:07;28.60;88.00
27224;DHT22;14965;50.660;13.226;2023-06-26T10:07:34;28.90;86.00
27224;DHT22;14965;50.660;13.226;2023-06-26T10:10:02;29.00;85.90
27224;DHT22;14965;50.660;13.226;2023-06-26T10:12:30;29.30;87.20
27224;DHT22;14965;50.660;13.226;2023-06-26T10:14:57;29.60;86.40
27224;DHT22;14965;50.660;13.226;2023-06-26T10:17:27;28.90;81.20
27224;DHT22;14965;50.660;13.226;2023-06-26T10:19:57;28.20;86.50
27224;DHT22;14965;50.660;13.226;2023-06-26T10:22:28;27.90;89.20
27224;DHT22;14965;50.660;13.226;2023-06-26T10:24:58;27.70;89.10
27224;DHT22;14965;50.660;13.226;2023-06-26T10:27:30;27.60;90.30
27224;DHT22;14965;50.660;13.226;2023-06-26T10:30:04;27.70;90.00
27224;DHT22;14965;50.660;13.226;2023-06-26T10:32:36;27.70;87.50
27224;DHT22;14965;50.660;13.226;2023-06-26T10:35:06;27.70;86.80
27224;DHT22;14965;50.660;13.226;2023-06-26T10:37:42;28.00;87.30
27224;DHT22;14965;50.660;13.226;2023-06-26T10:40:09;28.10;83.40
27224;DHT22;14965;50.660;13.226;2023-06-26T10:42:37;28.10;84.40
27224;DHT22;14965;50.660;13.226;2023-06-26T10:45:11;28.20;86.50
27224;DHT22;14965;50.660;13.226;2023-06-26T10:47:42;28.30;88.20
27224;DHT22;14965;50.660;13.226;2023-06-26T10:50:22;28.20;84.00
27224;DHT22;14965;50.660;13.226;2023-06-26T10:53:12;28.00;80.20
27224;DHT22;14965;50.660;13.226;2023-06-26T10:55:47;28.20;85.90
27224;DHT22;14965;50.660;13.226;2023-06-26T10:58:30;28.30;89.50
27224;DHT22;14965;50.660;13.226;2023-06-26T11:01:17;28.40;81.40
27224;DHT22;14965;50.660;13.226;2023-06-26T11:03:46;28.40;80.10
27224;DHT22;14965;50.660;13.226;2023-06-26T11:06:14;28.40;81.80
27224;DHT22;14965;50.660;13.226;2023-06-26T11:08:44;28.30;81.60
27224;DHT22;14965;50.660;13.226;2023-06-26T11:11:10;28.10;82.70
27224;DHT22;14965;50.660;13.226;2023-06-26T11:13:37;28.00;82.60
27224;DHT22;14965;50.660;13.226;2023-06-26T11:16:05;28.00;83.50
27224;DHT22;14965;50.660;13.226;2023-06-26T11:18:31;28.20;83.90
27224;DHT22;14965;50.660;13.226;2023-06-26T11:21:06;28.40;78.70
27224;DHT22;14965;50.660;13.226;2023-06-26T11:23:33;28.60;80.20
27224;DHT22;14965;50.660;13.226;2023-06-26T11:26:13;28.90;82.50
27224;DHT22;14965;50.660;13.226;2023-06-26T11:28:47;29.00;82.70
27224;DHT22;14965;50.660;13.226;2023-06-26T11:31:27;29.10;76.70
27224;DHT22;14965;50.660;13.226;2023-06-26T11:33:53;29.00;76.90
27224;DHT22;14965;50.660;13.226;2023-06-26T11:36:23;29.00;79.80
27224;DHT22;14965;50.660;13.226;2023-06-26T11:38:52;29.10;79.40
27224;DHT22;14965;50.660;13.226;2023-06-26T11:41:18;29.20;80.90
27224;DHT22;14965;50.660;13.226;2023-06-26T11:43:44;29.20;83.10
27224;DHT22;14965;50.660;13.226;2023-06-26T11:46:10;29.40;78.20
27224;DHT22;14965;50.660;13.226;2023-06-26T11:48:36;29.20;78.20
27224;DHT22;14965;50.660;13.226;2023-06-26T11:51:04;29.20;76.50
27224;DHT22;14965;50.660;13.226;2023-06-26T11:53:32;29.20;78.30
27224;DHT22;14965;50.660;13.226;2023-06-26T11:56:08;29.20;76.90
27224;DHT22;14965;50.660;13.226;2023-06-26T11:58:34;29.20;76.30
27224;DHT22;14965;50.660;13.226;2023-06-26T12:01:00;29.00;76.90
27224;DHT22;14965;50.660;13.226;2023-06-26T12:03:26;28.70;78.90
27224;DHT22;14965;50.660;13.226;2023-06-26T12:05:52;28.30;77.50
27224;DHT22;14965;50.660;13.226;2023-06-26T12:08:19;28.30;77.70
27224;DHT22;14965;50.660;13.226;2023-06-26T12:10:47;28.30;77.70
27224;DHT22;14965;50.660;13.226;2023-06-26T12:13:13;28.10;80.80
27224;DHT22;14965;50.660;13.226;2023-06-26T12:15:39;28.00;80.70
27224;DHT22;14965;50.660;13.226;2023-06-26T12:18:08;28.00;84.70
27224;DHT22;14965;50.660;13.226;2023-06-26T12:20:40;28.00;78.20
27224;DHT22;14965;50.660;13.226;2023-06-26T12:23:11;27.90;80.00
27224;DHT22;14965;50.660;13.226;2023-06-26T12:25:38;27.70;81.10
27224;DHT22;14965;50.660;13.226;2023-06-26T12:28:15;27.70;77.90
27224;DHT22;14965;50.660;13.226;2023-06-26T12:30:45;27.60;79.80
27224;DHT22;14965;50.660;13.226;2023-06-26T12:33:13;27.80;80.70
27224;DHT22;14965;50.660;13.226;2023-06-26T12:35:40;27.60;76.80
27224;DHT22;14965;50.660;13.226;2023-06-26T12:38:07;27.70;78.60
27224;DHT22;14965;50.660;13.226;2023-06-26T12:40:33;27.90;82.10
27224;DHT22;14965;50.660;13.226;2023-06-26T12:42:59;27.90;83.40
27224;DHT22;14965;50.660;13.226;2023-06-26T12:45:26;27.90;77.30
27224;DHT22;14965;50.660;13.226;2023-06-26T12:47:52;27.60;78.20
27224;DHT22;14965;50.660;13.226;2023-06-26T12:50:18;27.60;78.80
27224;DHT22;14965;50.660;13.226;2023-06-26T12:52:44;27.60;78.50
27224;DHT22;14965;50.660;13.226;2023-06-26T12:55:09;27.70;79.60
27224;DHT22;14965;50.660;13.226;2023-06-26T12:57:35;27.70;81.70
27224;DHT22;14965;50.660;13.226;2023-06-26T13:00:02;27.70;77.90
27224;DHT22;14965;50.660;13.226;2023-06-26T13:02:30;27.70;80.60
27224;DHT22;14965;50.660;13.226;2023-06-26T13:04:56;27.80;76.60
27224;DHT22;14965;50.660;13.226;2023-06-26T13:07:22;27.80;78.30
27224;DHT22;14965;50.660;13.226;2023-06-26T13:09:48;27.80;76.00
27224;DHT22;14965;50.660;13.226;2023-06-26T13:12:14;28.00;81.20
27224;DHT22;14965;50.660;13.226;2023-06-26T13:14:40;28.10;82.80
27224;DHT22;14965;50.660;13.226;2023-06-26T13:17:05;28.20;74.60
27224;DHT22;14965;50.660;13.226;2023-06-26T13:19:33;28.10;76.90
27224;DHT22;14965;50.660;13.226;2023-06-26T13:21:58;28.20;76.70
27224;DHT22;14965;50.660;13.226;2023-06-26T13:24:24;28.10;78.90
27224;DHT22;14965;50.660;13.226;2023-06-26T13:26:50;28.10;79.00
27224;DHT22;14965;50.660;13.226;2023-06-26T13:29:16;28.10;78.40
27224;DHT22;14965;50.660;13.226;2023-06-26T13:31:42;28.10;81.70
27224;DHT22;14965;50.660;13.226;2023-06-26T13:34:08;28.10;81.30
27224;DHT22;14965;50.660;13.226;2023-06-26T13:36:46;28.00;81.60
27224;DHT22;14965;50.660;13.226;2023-06-26T13:39:12;28.00;77.90
27224;DHT22;14965;50.660;13.226;2023-06-26T13:41:39;28.10;77.70
27224;DHT22;14965;50.660;13.226;2023-06-26T13:44:05;28.20;76.50
27224;DHT22;14965;50.660;13.226;2023-06-26T13:46:31;28.20;78.30
27224;DHT22;14965;50.660;13.226;2023-06-26T13:48:57;28.20;80.40
27224;DHT22;14965;50.660;13.226;2023-06-26T13:51:23;28.10;79.80
27224;DHT22;14965;50.660;13.226;2023-06-26T13:53:50;28.00;79.50
27224;DHT22;14965;50.660;13.226;2023-06-26T13:56:16;28.00;77.10
27224;DHT22;14965;50.660;13.226;2023-06-26T13:58:42;28.00;78.00
27224;DHT22;14965;50.660;13.226;2023-06-26T14:01:11;28.10;77.50
27224;DHT22;14965;50.660;13.226;2023-06-26T14:03:37;28.20;75.70
27224;DHT22;14965;50.660;13.226;2023-06-26T14:06:03;28.20;76.90
27224;DHT22;14965;50.660;13.226;2023-06-26T14:08:29;28.30;77.60
27224;DHT22;14965;50.660;13.226;2023-06-26T14:10:57;28.30;76.50
27224;DHT22;14965;50.660;13.226;2023-06-26T14:13:22;28.30;76.20
27224;DHT22;14965;50.660;13.226;2023-06-26T14:15:49;28.20;76.90
27224;DHT22;14965;50.660;13.226;2023-06-26T14:18:15;28.10;76.70
27224;DHT22;14965;50.660;13.226;2023-06-26T14:20:41;28.00;76.10
27224;DHT22;14965;50.660;13.226;2023-06-26T14:23:06;28.00;79.80
27224;DHT22;14965;50.660;13.226;2023-06-26T14:25:32;28.00;73.70
27224;DHT22;14965;50.660;13.226;2023-06-26T14:28:00;28.00;74.40
27224;DHT22;14965;50.660;13.226;2023-06-26T14:30:26;28.00;75.40
27224;DHT22;14965;50.660;13.226;2023-06-26T14:32:52;28.00;78.50
27224;DHT22;14965;50.660;13.226;2023-06-26T14:35:18;28.00;78.40
27224;DHT22;14965;50.660;13.226;2023-06-26T14:37:44;28.00;78.60
27224;DHT22;14965;50.660;13.226;2023-06-26T14:40:10;28.00;76.30
27224;DHT22;14965;50.660;13.226;2023-06-26T14:42:37;28.00;75.30
27224;DHT22;14965;50.660;13.226;2023-06-26T14:45:06;28.00;75.60
27224;DHT22;14965;50.660;13.226;2023-06-26T14:47:33;27.90;75.20
27224;DHT22;14965;50.660;13.226;2023-06-26T14:49:59;27.90;77.20
27224;DHT22;14965;50.660;13.226;2023-06-26T14:52:25;27.90;74.10
27224;DHT22;14965;50.660;13.226;2023-06-26T14:54:51;27.90;73.20
27224;DHT22;14965;50.660;13.226;2023-06-26T14:57:17;27.90;72.40
27224;DHT22;14965;50.660;13.226;2023-06-26T14:59:46;27.80;73.20
27224;DHT22;14965;50.660;13.226;2023-06-26T15:02:13;27.80;72.40
27224;DHT22;14965;50.660;13.226;2023-06-26T15:04:40;27.80;75.90
27224;DHT22;14965;50.660;13.226;2023-06-26T15:07:06;27.80;75.00
27224;DHT22;14965;50.660;13.226;2023-06-26T15:09:32;27.80;71.30
27224;DHT22;14965;50.660;13.226;2023-06-26T15:11:58;27.80;70.60
27224;DHT22;14965;50.660;13.226;2023-06-26T15:14:23;27.70;74.60
27224;DHT22;14965;50.660;13.226;2023-06-26T15:16:49;27.70;73.00
27224;DHT22;14965;50.660;13.226;2023-06-26T15:19:17;27.70;74.10